Time,TemperatureF,DewpointF,PressureIn,WindDirection,WindDirectionDegrees,WindSpeedMPH,WindSpeedGustMPH,Humidity,HourlyPrecipIn,Conditions,Clouds,dailyrainin,SolarRadiationWatts/m^2,SoftwareType,DateUTC
2013-08-01 00:00:00,81.6,78.4,29.93,SE,137,4.0,14.2,90,0.00,,---,0.00,0.00,VWS V14.01,2013-08-01 05:00:00,
2013-08-01 00:02:00,81.6,78.4,29.93,SE,137,3.0,7.2,90,0.00,,---,0.00,0.00,VWS V14.01,2013-08-01 05:02:00,
2013-08-01 00:05:00,81.6,78.4,29.93,SE,138,10.0,11.2,90,0.00,,---,0.00,0.00,VWS V14.01,2013-08-01 05:05:00,
2013-08-01 00:07:00,81.8,78.6,29.93,SE,142,5.0,13.2,90,0.00,,---,0.00,0.00,VWS V14.01,2013-08-01 05:07:00,
2013-08-01 00:10:00,81.8,78.6,29.93,SSE,150,5.0,13.2,90,0.00,,---,0.00,0.00,VWS V14.01,2013-08-01 05:10:00,
2013-08-01 00:12:00,81.8,78.6,29.93,SSE,149,6.0,9.2,90,0.00,,---,0.00,0.00,VWS V14.01,2013-08-01 05:12:00,
2013-08-01 00:15:00,81.8,78.6,29.93,ESE,107,4.0,12.2,90,0.00,,---,0.00,0.00,VWS V14.01,2013-08-01 05:15:00,
2013-08-01 00:17:00,81.8,78.2,29.93,SE,131,4.0,10.2,89,0.00,,---,0.00,0.00,VWS V14.01,2013-08-01 05:17:00,
2013-08-01 00:20:00,82.0,78.4,29.93,SE,137,9.0,11.2,89,0.00,,---,0.00,0.00,VWS V14.01,2013-08-01 05:20:00,
2013-08-01 00:22:00,82.0,78.4,29.93,SE,143,5.0,10.2,89,0.00,,---,0.00,0.00,VWS V14.01,2013-08-01 05:22:00,
2013-08-01 00:25:00,81.8,78.2,29.93,SSE,150,1.0,12.2,89,0.00,,---,0.00,0.00,VWS V14.01,2013-08-01 05:25:00,
2013-08-01 00:27:00,81.8,78.2,29.93,SSE,148,5.0,10.2,89,0.00,,---,0.00,0.00,VWS V14.01,2013-08-01 05:27:00,
2013-08-01 00:30:00,81.8,78.2,29.94,SSE,151,0.0,11.2,89,0.00,,---,0.00,0.00,VWS V14.01,2013-08-01 05:30:00,
2013-08-01 00:32:00,81.8,78.2,29.94,SE,144,4.0,11.2,89,0.00,,---,0.00,0.00,VWS V14.01,2013-08-01 05:32:00,
2013-08-01 00:35:00,81.6,78.4,29.94,SSE,150,5.0,12.2,90,0.00,,---,0.00,0.00,VWS V14.01,2013-08-01 05:35:00,
2013-08-01 00:37:00,81.6,78.4,29.94,SSE,151,7.0,8.2,90,0.00,,---,0.00,0.00,VWS V14.01,2013-08-01 05:37:00,
2013-08-01 00:40:00,81.4,78.2,29.94,SSE,150,5.0,11.2,90,0.00,,---,0.00,0.00,VWS V14.01,2013-08-01 05:40:00,
2013-08-01 00:42:00,81.4,78.2,29.94,SE,144,5.0,11.2,90,0.00,,---,0.00,0.00,VWS V14.01,2013-08-01 05:42:00,
2013-08-01 00:45:00,81.6,78.4,29.94,SSE,147,3.0,11.2,90,0.00,,---,0.00,0.00,VWS V14.01,2013-08-01 05:45:00,
2013-08-01 00:47:00,81.6,78.4,29.94,SE,144,8.0,12.2,90,0.00,,---,0.00,0.00,VWS V14.01,2013-08-01 05:47:00,
2013-08-01 00:50:00,81.6,78.4,29.94,SSE,157,4.0,12.2,90,0.00,,---,0.00,0.00,VWS V14.01,2013-08-01 05:50:00,
2013-08-01 00:52:00,81.6,78.4,29.94,SSE,163,10.0,13.2,90,0.00,,---,0.00,0.00,VWS V14.01,2013-08-01 05:52:00,
2013-08-01 00:55:00,81.4,78.2,29.94,SSE,147,7.0,13.2,90,0.00,,---,0.00,0.00,VWS V14.01,2013-08-01 05:55:00,
2013-08-01 00:57:00,81.4,78.2,29.94,SSE,155,4.0,8.2,90,0.00,,---,0.00,0.00,VWS V14.01,2013-08-01 05:57:00,
2013-08-01 01:00:00,81.4,78.2,29.93,SSE,147,10.0,13.2,90,0.00,,---,0.00,0.00,VWS V14.01,2013-08-01 06:00:00,
2013-08-01 01:02:00,81.2,78.0,29.93,SSE,148,5.0,11.2,90,0.00,,---,0.00,0.00,VWS V14.01,2013-08-01 06:02:00,
2013-08-01 01:05:00,81.2,78.0,29.93,SE,139,6.0,12.2,90,0.00,,---,0.00,0.00,VWS V14.01,2013-08-01 06:05:00,
2013-08-01 01:07:00,81.2,78.0,29.93,SSE,165,3.0,9.2,90,0.00,,---,0.00,0.00,VWS V14.01,2013-08-01 06:07:00,
2013-08-01 01:10:00,81.2,78.0,29.93,SSE,148,3.0,12.2,90,0.00,,---,0.00,0.00,VWS V14.01,2013-08-01 06:10:00,
2013-08-01 01:12:00,81.2,78.0,29.93,SE,137,6.0,10.2,90,0.00,,---,0.00,0.00,VWS V14.01,2013-08-01 06:12:00,
2013-08-01 01:15:00,81.2,78.0,29.93,SSE,153,6.0,11.2,90,0.00,,---,0.00,0.00,VWS V14.01,2013-08-01 06:15:00,
2013-08-01 01:17:00,81.2,78.3,29.93,South,178,5.0,8.2,91,0.00,,---,0.00,0.00,VWS V14.01,2013-08-01 06:17:00,
2013-08-01 01:20:00,81.2,78.3,29.93,South,190,7.0,12.2,91,0.00,,---,0.00,0.00,VWS V14.01,2013-08-01 06:20:00,
2013-08-01 01:22:00,81.2,78.3,29.93,SE,145,7.0,11.2,91,0.00,,---,0.00,0.00,VWS V14.01,2013-08-01 06:22:00,
2013-08-01 01:25:00,81.4,78.5,29.93,SSE,150,2.0,13.2,91,0.00,,---,0.00,0.00,VWS V14.01,2013-08-01 06:25:00,
2013-08-01 01:27:00,81.6,78.4,29.93,SSE,153,3.0,6.2,90,0.00,,---,0.00,0.00,VWS V14.01,2013-08-01 06:27:00,
2013-08-01 01:30:00,81.8,78.6,29.93,SSE,167,4.0,9.2,90,0.00,,---,0.00,0.00,VWS V14.01,2013-08-01 06:30:00,
2013-08-01 01:32:00,81.8,78.6,29.93,SSE,168,3.0,5.2,90,0.00,,---,0.00,0.00,VWS V14.01,2013-08-01 06:32:00,
2013-08-01 01:35:00,81.6,78.1,29.93,SSE,168,5.0,10.2,89,0.00,,---,0.00,0.00,VWS V14.01,2013-08-01 06:35:00,
2013-08-01 01:37:00,81.6,78.1,29.93,SSE,155,3.0,9.2,89,0.00,,---,0.00,0.00,VWS V14.01,2013-08-01 06:37:00,
2013-08-01 01:40:00,81.6,78.1,29.93,SSE,164,3.0,13.2,89,0.00,,---,0.00,0.00,VWS V14.01,2013-08-01 06:40:00,
2013-08-01 01:42:00,81.6,78.1,29.93,SSE,166,11.0,14.2,89,0.00,,---,0.00,0.00,VWS V14.01,2013-08-01 06:42:00,
2013-08-01 01:45:00,81.6,78.1,29.93,SSW,196,5.0,14.2,89,0.00,,---,0.00,0.00,VWS V14.01,2013-08-01 06:45:00,
2013-08-01 01:47:00,81.4,77.8,29.93,South,174,7.0,11.2,89,0.00,,---,0.00,0.00,VWS V14.01,2013-08-01 06:47:00,
2013-08-01 01:50:00,81.4,78.2,29.93,SSE,147,2.0,11.2,90,0.00,,---,0.00,0.00,VWS V14.01,2013-08-01 06:50:00,
2013-08-01 01:52:00,81.4,78.2,29.93,SE,145,10.0,13.2,90,0.00,,---,0.00,0.00,VWS V14.01,2013-08-01 06:52:00,
2013-08-01 01:55:00,81.2,78.0,29.93,SSE,147,5.0,14.2,90,0.00,,---,0.00,0.00,VWS V14.01,2013-08-01 06:55:00,
2013-08-01 01:57:00,81.2,78.0,29.93,SE,145,5.0,9.2,90,0.00,,---,0.00,0.00,VWS V14.01,2013-08-01 06:57:00,
2013-08-01 02:00:00,81.2,78.0,29.93,SSE,166,7.0,12.2,90,0.00,,---,0.00,0.00,VWS V14.01,2013-08-01 07:00:00,
2013-08-01 02:02:00,81.2,78.0,29.93,SSE,159,4.0,11.2,90,0.00,,---,0.00,0.00,VWS V14.01,2013-08-01 07:02:00,
2013-08-01 02:05:00,81.2,78.0,29.93,SSE,166,11.0,12.2,90,0.00,,---,0.00,0.00,VWS V14.01,2013-08-01 07:05:00,
2013-08-01 02:07:00,81.2,78.0,29.93,South,169,7.0,12.2,90,0.00,,---,0.00,0.00,VWS V14.01,2013-08-01 07:07:00,
2013-08-01 02:10:00,81.4,78.2,29.93,SSE,150,6.0,12.2,90,0.00,,---,0.00,0.00,VWS V14.01,2013-08-01 07:10:00,
2013-08-01 02:12:00,81.4,78.2,29.93,SSE,157,9.0,11.2,90,0.00,,---,0.00,0.00,VWS V14.01,2013-08-01 07:12:00,
2013-08-01 02:15:00,81.2,78.0,29.94,SSE,148,5.0,11.2,90,0.00,,---,0.00,0.00,VWS V14.01,2013-08-01 07:15:00,
2013-08-01 02:17:00,81.2,78.0,29.94,SE,142,6.0,7.2,90,0.00,,---,0.00,0.00,VWS V14.01,2013-08-01 07:17:00,
2013-08-01 02:20:00,81.2,78.0,29.94,South,177,4.0,13.2,90,0.00,,---,0.00,0.00,VWS V14.01,2013-08-01 07:20:00,
2013-08-01 02:22:00,81.2,78.0,29.94,South,175,7.0,10.2,90,0.00,,---,0.00,0.00,VWS V14.01,2013-08-01 07:22:00,
2013-08-01 02:25:00,81.1,77.9,29.94,SSE,165,6.0,11.2,90,0.00,,---,0.00,0.00,VWS V14.01,2013-08-01 07:25:00,
2013-08-01 02:27:00,81.1,77.9,29.94,SE,144,9.0,10.2,90,0.00,,---,0.00,0.00,VWS V14.01,2013-08-01 07:27:00,
2013-08-01 02:30:00,81.1,77.9,29.93,SSE,159,4.0,11.2,90,0.00,,---,0.00,0.00,VWS V14.01,2013-08-01 07:30:00,
2013-08-01 02:32:00,81.1,77.9,29.93,SSE,152,3.0,8.2,90,0.00,,---,0.00,0.00,VWS V14.01,2013-08-01 07:32:00,
2013-08-01 02:35:00,81.1,77.9,29.93,SSE,155,7.0,13.2,90,0.00,,---,0.00,0.00,VWS V14.01,2013-08-01 07:35:00,
2013-08-01 02:38:00,81.1,77.9,29.93,SSE,162,4.0,13.2,90,0.00,,---,0.00,0.00,VWS V14.01,2013-08-01 07:38:00,
2013-08-01 02:40:00,81.1,78.2,29.93,SSE,152,4.0,13.2,91,0.00,,---,0.00,0.00,VWS V14.01,2013-08-01 07:40:00,
2013-08-01 02:43:00,81.1,78.2,29.93,SSE,152,1.0,7.2,91,0.00,,---,0.00,0.00,VWS V14.01,2013-08-01 07:43:00,
2013-08-01 02:45:00,81.1,78.2,29.93,SSE,150,6.0,12.2,91,0.00,,---,0.00,0.00,VWS V14.01,2013-08-01 07:45:00,
2013-08-01 02:47:00,81.1,77.9,29.93,SE,146,6.0,8.2,90,0.00,,---,0.00,0.00,VWS V14.01,2013-08-01 07:47:00,
2013-08-01 02:50:00,81.2,78.0,29.93,SSE,153,3.0,10.2,90,0.00,,---,0.00,0.00,VWS V14.01,2013-08-01 07:50:00,
2013-08-01 02:53:00,81.2,78.0,29.93,South,186,0.0,6.2,90,0.00,,---,0.00,0.00,VWS V14.01,2013-08-01 07:53:00,
2013-08-01 02:55:00,81.4,78.2,29.93,SSE,155,0.0,8.2,90,0.00,,---,0.00,0.00,VWS V14.01,2013-08-01 07:55:00,
2013-08-01 02:58:00,81.6,78.4,29.93,SSE,163,4.0,10.2,90,0.00,,---,0.00,0.00,VWS V14.01,2013-08-01 07:58:00,
2013-08-01 03:00:00,81.4,77.8,29.93,SSE,157,6.0,11.2,89,0.00,,---,0.00,0.00,VWS V14.01,2013-08-01 08:00:00,
2013-08-01 03:03:00,81.4,77.8,29.93,South,190,2.0,7.2,89,0.00,,---,0.00,0.00,VWS V14.01,2013-08-01 08:03:00,
2013-08-01 03:05:00,81.4,78.2,29.93,South,178,4.0,7.2,90,0.00,,---,0.00,0.00,VWS V14.01,2013-08-01 08:05:00,
2013-08-01 03:08:00,81.2,78.0,29.93,South,182,11.0,12.2,90,0.00,,---,0.00,0.00,VWS V14.01,2013-08-01 08:08:00,
2013-08-01 03:10:00,81.1,77.9,29.93,SSW,196,2.0,16.2,90,0.00,,---,0.00,0.00,VWS V14.01,2013-08-01 08:10:00,
2013-08-01 03:13:00,81.1,77.9,29.93,South,175,2.0,7.2,90,0.00,,---,0.00,0.00,VWS V14.01,2013-08-01 08:13:00,
2013-08-01 03:15:00,81.1,78.2,29.92,SSE,161,0.0,10.2,91,0.00,,---,0.00,0.00,VWS V14.01,2013-08-01 08:15:00,
2013-08-01 03:18:00,81.1,78.2,29.92,SSE,160,2.0,6.2,91,0.00,,---,0.00,0.00,VWS V14.01,2013-08-01 08:18:00,
2013-08-01 03:20:00,80.9,78.0,29.92,SSE,163,4.0,7.2,91,0.00,,---,0.00,0.00,VWS V14.01,2013-08-01 08:20:00,
2013-08-01 03:23:00,80.9,78.0,29.92,South,180,8.0,9.2,91,0.00,,---,0.00,0.00,VWS V14.01,2013-08-01 08:23:00,
2013-08-01 03:25:00,80.9,78.0,29.92,SE,144,0.0,9.2,91,0.00,,---,0.00,0.00,VWS V14.01,2013-08-01 08:25:00,
2013-08-01 03:28:00,80.9,78.0,29.92,SE,138,0.0,6.2,91,0.00,,---,0.00,0.00,VWS V14.01,2013-08-01 08:28:00,
2013-08-01 03:30:00,80.9,78.4,29.92,SSE,154,5.0,9.2,92,0.00,,---,0.00,0.00,VWS V14.01,2013-08-01 08:30:00,
2013-08-01 03:33:00,80.7,78.2,29.92,SE,130,5.0,8.2,92,0.00,,---,0.00,0.00,VWS V14.01,2013-08-01 08:33:00,
2013-08-01 03:35:00,80.7,78.2,29.92,SE,142,2.0,9.2,92,0.00,,---,0.00,0.00,VWS V14.01,2013-08-01 08:35:00,
2013-08-01 03:39:00,80.9,78.4,29.92,SSE,159,6.0,11.2,92,0.00,,---,0.00,0.00,VWS V14.01,2013-08-01 08:39:00,
2013-08-01 03:40:00,80.9,78.4,29.92,SSE,161,0.0,11.2,92,0.00,,---,0.00,0.00,VWS V14.01,2013-08-01 08:40:00,
2013-08-01 03:44:00,80.9,78.4,29.92,SSE,155,0.0,12.2,92,0.00,,---,0.00,0.00,VWS V14.01,2013-08-01 08:44:00,
2013-08-01 03:45:00,80.9,78.4,29.92,SE,133,2.0,12.2,92,0.00,,---,0.00,0.00,VWS V14.01,2013-08-01 08:45:00,
2013-08-01 03:49:00,80.9,78.4,29.92,SSE,161,1.0,6.2,92,0.00,,---,0.00,0.00,VWS V14.01,2013-08-01 08:49:00,
2013-08-01 03:50:00,80.9,78.4,29.92,SSE,157,2.0,6.2,92,0.00,,---,0.00,0.00,VWS V14.01,2013-08-01 08:50:00,
2013-08-01 03:54:00,80.9,78.4,29.92,SSE,167,2.0,6.2,92,0.00,,---,0.00,0.00,VWS V14.01,2013-08-01 08:54:00,
2013-08-01 03:55:00,80.7,78.2,29.92,SSE,167,3.0,6.2,92,0.00,,---,0.00,0.00,VWS V14.01,2013-08-01 08:55:00,
2013-08-01 03:59:00,80.7,78.2,29.92,SSE,150,1.0,8.2,92,0.00,,---,0.00,0.00,VWS V14.01,2013-08-01 08:59:00,
2013-08-01 04:00:00,80.7,78.2,29.92,SSE,160,2.0,8.2,92,0.00,,---,0.00,0.00,VWS V14.01,2013-08-01 09:00:00,
2013-08-01 04:04:00,80.7,78.2,29.92,SSE,162,2.0,10.2,92,0.00,,---,0.00,0.00,VWS V14.01,2013-08-01 09:04:00,
2013-08-01 04:05:00,80.7,78.2,29.92,South,178,3.0,10.2,92,0.00,,---,0.00,0.00,VWS V14.01,2013-08-01 09:05:00,
2013-08-01 04:09:00,80.9,78.4,29.92,SSE,159,2.0,8.2,92,0.00,,---,0.00,0.00,VWS V14.01,2013-08-01 09:09:00,
2013-08-01 04:10:00,80.9,78.4,29.92,SSE,160,3.0,8.2,92,0.00,,---,0.00,0.00,VWS V14.01,2013-08-01 09:10:00,
2013-08-01 04:15:00,80.9,78.4,29.92,SSE,161,4.0,11.2,92,0.00,,---,0.00,0.00,VWS V14.01,2013-08-01 09:15:00,
2013-08-01 04:20:00,80.9,78.4,29.92,South,181,3.0,8.2,92,0.00,,---,0.00,0.00,VWS V14.01,2013-08-01 09:20:00,
2013-08-01 04:25:00,80.9,78.4,29.92,South,181,3.0,12.2,92,0.00,,---,0.00,0.00,VWS V14.01,2013-08-01 09:25:00,
2013-08-01 04:30:00,80.7,78.2,29.91,South,180,3.0,13.2,92,0.00,,---,0.00,0.00,VWS V14.01,2013-08-01 09:30:00,
2013-08-01 04:31:00,80.7,78.2,29.91,South,171,4.0,13.2,92,0.00,,---,0.00,0.00,VWS V14.01,2013-08-01 09:31:00,
2013-08-01 04:35:00,80.5,78.0,29.91,SSE,150,3.0,16.2,92,0.00,,---,0.00,0.00,VWS V14.01,2013-08-01 09:35:00,
2013-08-01 04:36:00,80.5,78.0,29.91,SSW,198,4.0,16.2,92,0.00,,---,0.00,0.00,VWS V14.01,2013-08-01 09:36:00,
2013-08-01 04:40:00,80.3,77.8,29.91,South,171,3.0,8.2,92,0.00,,---,0.00,0.00,VWS V14.01,2013-08-01 09:40:00,
2013-08-01 04:41:00,80.3,77.8,29.91,South,175,1.0,8.2,92,0.00,,---,0.00,0.00,VWS V14.01,2013-08-01 09:41:00,
2013-08-01 04:45:00,80.3,77.8,29.92,South,191,4.0,9.2,92,0.00,,---,0.00,0.00,VWS V14.01,2013-08-01 09:45:00,
2013-08-01 04:46:00,80.3,77.8,29.92,South,191,1.0,9.2,92,0.00,,---,0.00,0.00,VWS V14.01,2013-08-01 09:46:00,
2013-08-01 04:50:00,80.3,77.8,29.92,South,183,1.0,6.2,92,0.00,,---,0.00,0.00,VWS V14.01,2013-08-01 09:50:00,
2013-08-01 04:51:00,80.3,77.8,29.92,South,183,1.0,6.2,92,0.00,,---,0.00,0.00,VWS V14.01,2013-08-01 09:51:00,
2013-08-01 04:55:00,80.3,77.8,29.92,South,180,0.0,10.2,92,0.00,,---,0.00,0.00,VWS V14.01,2013-08-01 09:55:00,
2013-08-01 04:56:00,80.1,77.6,29.92,SSW,210,4.0,6.2,92,0.00,,---,0.00,0.00,VWS V14.01,2013-08-01 09:56:00,
2013-08-01 05:00:00,80.3,77.8,29.92,SSW,196,2.0,12.2,92,0.00,,---,0.00,0.00,VWS V14.01,2013-08-01 10:00:00,
2013-08-01 05:01:00,80.3,77.8,29.92,South,186,4.0,7.2,92,0.00,,---,0.00,0.00,VWS V14.01,2013-08-01 10:01:00,
2013-08-01 05:05:00,80.1,77.6,29.92,South,174,2.0,7.2,92,0.00,,---,0.00,0.00,VWS V14.01,2013-08-01 10:05:00,
2013-08-01 05:07:00,80.1,77.6,29.92,South,180,2.0,5.2,92,0.00,,---,0.00,0.00,VWS V14.01,2013-08-01 10:07:00,
2013-08-01 05:10:00,80.3,77.8,29.92,SSE,159,5.0,7.2,92,0.00,,---,0.00,0.00,VWS V14.01,2013-08-01 10:10:00,
2013-08-01 05:12:00,80.3,77.8,29.92,SSE,157,6.0,7.2,92,0.00,,---,0.00,0.00,VWS V14.01,2013-08-01 10:12:00,
2013-08-01 05:15:00,80.3,77.8,29.92,South,169,1.0,8.2,92,0.00,,---,0.00,0.00,VWS V14.01,2013-08-01 10:15:00,
2013-08-01 05:17:00,80.3,77.8,29.92,South,181,1.0,7.2,92,0.00,,---,0.00,0.00,VWS V14.01,2013-08-01 10:17:00,
2013-08-01 05:20:00,80.1,77.6,29.92,South,185,5.0,7.2,92,0.00,,---,0.00,0.00,VWS V14.01,2013-08-01 10:20:00,
2013-08-01 05:22:00,80.1,77.6,29.92,South,187,6.0,7.2,92,0.00,,---,0.00,0.00,VWS V14.01,2013-08-01 10:22:00,
2013-08-01 05:25:00,80.1,77.6,29.92,South,190,3.0,7.2,92,0.00,,---,0.00,0.00,VWS V14.01,2013-08-01 10:25:00,
2013-08-01 05:27:00,80.1,77.6,29.92,South,190,0.0,4.2,92,0.00,,---,0.00,0.00,VWS V14.01,2013-08-01 10:27:00,
2013-08-01 05:30:00,80.1,77.6,29.92,South,186,3.0,7.2,92,0.00,,---,0.00,0.00,VWS V14.01,2013-08-01 10:30:00,
2013-08-01 05:33:00,80.1,77.9,29.92,South,187,0.0,5.2,93,0.00,,---,0.00,0.00,VWS V14.01,2013-08-01 10:33:00,
2013-08-01 05:35:00,80.1,77.9,29.92,South,186,2.0,6.2,93,0.00,,---,0.00,0.00,VWS V14.01,2013-08-01 10:35:00,
2013-08-01 05:38:00,80.1,77.9,29.92,South,186,0.0,5.2,93,0.00,,---,0.00,0.00,VWS V14.01,2013-08-01 10:38:00,
2013-08-01 05:40:00,80.1,77.9,29.92,South,185,6.0,7.2,93,0.00,,---,0.00,0.00,VWS V14.01,2013-08-01 10:40:00,
2013-08-01 05:43:00,79.9,77.7,29.92,SSW,193,5.0,7.2,93,0.00,,---,0.00,0.00,VWS V14.01,2013-08-01 10:43:00,
2013-08-01 05:45:00,79.9,77.7,29.92,SSW,208,1.0,10.2,93,0.00,,---,0.00,0.00,VWS V14.01,2013-08-01 10:45:00,
2013-08-01 05:48:00,79.9,77.7,29.92,SSW,192,1.0,6.2,93,0.00,,---,0.00,0.00,VWS V14.01,2013-08-01 10:48:00,
2013-08-01 05:50:00,79.8,77.6,29.92,South,186,6.0,8.2,93,0.00,,---,0.00,0.00,VWS V14.01,2013-08-01 10:50:00,
2013-08-01 05:53:00,79.8,77.6,29.92,South,170,1.0,8.2,93,0.00,,---,0.00,0.00,VWS V14.01,2013-08-01 10:53:00,
2013-08-01 05:55:00,79.8,77.9,29.92,SSW,201,1.0,8.2,94,0.00,,---,0.00,0.00,VWS V14.01,2013-08-01 10:55:00,
2013-08-01 05:58:00,79.6,77.7,29.92,SSW,192,3.0,10.2,94,0.00,,---,0.00,0.00,VWS V14.01,2013-08-01 10:58:00,
2013-08-01 06:00:00,79.6,77.7,29.92,SSW,192,0.0,10.2,94,0.00,,---,0.00,0.00,VWS V14.01,2013-08-01 11:00:00,
2013-08-01 06:04:00,79.6,77.7,29.92,SSW,213,0.0,7.2,94,0.00,,---,0.00,0.00,VWS V14.01,2013-08-01 11:04:00,
2013-08-01 06:05:00,79.6,77.7,29.92,SSW,213,3.0,7.2,94,0.00,,---,0.00,0.00,VWS V14.01,2013-08-01 11:05:00,
2013-08-01 06:09:00,79.4,77.5,29.92,SSW,213,2.0,6.2,94,0.00,,---,0.00,0.00,VWS V14.01,2013-08-01 11:09:00,
2013-08-01 06:10:00,79.4,77.5,29.92,SSW,213,0.0,6.2,94,0.00,,---,0.00,0.00,VWS V14.01,2013-08-01 11:10:00,
2013-08-01 06:14:00,79.4,77.5,29.92,SSW,213,2.0,5.2,94,0.00,,---,0.00,0.00,VWS V14.01,2013-08-01 11:14:00,
2013-08-01 06:15:00,79.4,77.5,29.93,SSW,213,0.0,5.2,94,0.00,,---,0.00,0.00,VWS V14.01,2013-08-01 11:15:00,
2013-08-01 06:19:00,79.2,77.3,29.93,SSW,213,2.0,5.2,94,0.00,,---,0.00,0.00,VWS V14.01,2013-08-01 11:19:00,
2013-08-01 06:20:00,79.2,77.3,29.93,SSW,213,1.0,5.2,94,0.00,,---,0.00,0.00,VWS V14.01,2013-08-01 11:20:00,
2013-08-01 06:24:00,79.2,77.3,29.93,SSW,213,1.0,4.2,94,0.00,,---,0.00,0.00,VWS V14.01,2013-08-01 11:24:00,
2013-08-01 06:25:00,79.2,77.3,29.93,SSW,213,1.0,4.2,94,0.00,,---,0.00,0.00,VWS V14.01,2013-08-01 11:25:00,
2013-08-01 06:30:00,79.0,77.1,29.93,SSW,213,0.0,5.2,94,0.00,,---,0.00,0.00,VWS V14.01,2013-08-01 11:30:00,
2013-08-01 06:35:00,78.8,77.2,29.93,SSW,213,3.0,6.2,95,0.00,,---,0.00,0.00,VWS V14.01,2013-08-01 11:35:00,
2013-08-01 06:40:00,78.8,77.2,29.93,SSW,213,0.0,3.2,95,0.00,,---,0.00,0.00,VWS V14.01,2013-08-01 11:40:00,
2013-08-01 06:41:00,78.8,77.2,29.93,SSW,213,0.0,3.2,95,0.00,,---,0.00,0.00,VWS V14.01,2013-08-01 11:41:00,
2013-08-01 06:45:00,78.6,77.1,29.95,SSW,213,0.0,3.2,95,0.00,,---,0.00,0.00,VWS V14.01,2013-08-01 11:45:00,
2013-08-01 06:46:00,78.6,77.1,29.95,SSW,213,0.0,1.2,95,0.00,,---,0.00,0.00,VWS V14.01,2013-08-01 11:46:00,
2013-08-01 06:50:00,78.6,77.1,29.95,SSW,213,0.0,1.2,95,0.00,,---,0.00,0.00,VWS V14.01,2013-08-01 11:50:00,
2013-08-01 06:52:00,78.6,77.1,29.95,SSW,213,0.0,1.2,95,0.00,,---,0.00,0.00,VWS V14.01,2013-08-01 11:52:00,
2013-08-01 06:55:00,78.6,77.1,29.95,SSW,213,0.0,3.2,95,0.00,,---,0.00,0.00,VWS V14.01,2013-08-01 11:55:00,
2013-08-01 06:57:00,78.6,77.1,29.95,SSW,213,0.0,2.2,95,0.00,,---,0.00,0.00,VWS V14.01,2013-08-01 11:57:00,
2013-08-01 07:00:00,78.5,76.9,29.94,SSW,213,1.0,2.2,95,0.00,,---,0.00,5.00,VWS V14.01,2013-08-01 12:00:00,
2013-08-01 07:02:00,78.5,76.9,29.94,SSW,213,0.0,2.2,95,0.00,,---,0.00,7.00,VWS V14.01,2013-08-01 12:02:00,
2013-08-01 07:05:00,78.3,76.8,29.94,SSW,213,2.0,3.2,95,0.00,,---,0.00,11.00,VWS V14.01,2013-08-01 12:05:00,
2013-08-01 07:07:00,78.3,76.8,29.94,SSW,213,0.0,3.2,95,0.00,,---,0.00,11.00,VWS V14.01,2013-08-01 12:07:00,
2013-08-01 07:10:00,78.3,76.8,29.94,SSW,213,1.0,4.2,95,0.00,,---,0.00,12.00,VWS V14.01,2013-08-01 12:10:00,
2013-08-01 07:12:00,78.3,76.8,29.94,SSW,213,0.0,2.2,95,0.00,,---,0.00,14.00,VWS V14.01,2013-08-01 12:12:00,
2013-08-01 07:15:00,78.3,76.8,29.95,SSW,213,0.0,4.2,95,0.00,,---,0.00,19.00,VWS V14.01,2013-08-01 12:15:00,
2013-08-01 07:17:00,78.3,76.8,29.95,SSW,213,1.0,3.2,95,0.00,,---,0.00,19.00,VWS V14.01,2013-08-01 12:17:00,
2013-08-01 07:20:00,78.3,76.8,29.95,SSW,213,2.0,3.2,95,0.00,,---,0.00,21.00,VWS V14.01,2013-08-01 12:20:00,
2013-08-01 07:22:00,78.3,76.8,29.95,SSW,213,0.0,3.2,95,0.00,,---,0.00,21.00,VWS V14.01,2013-08-01 12:22:00,
2013-08-01 07:25:00,78.3,76.8,29.95,SSW,213,1.0,6.2,95,0.00,,---,0.00,26.00,VWS V14.01,2013-08-01 12:25:00,
2013-08-01 07:27:00,78.3,76.8,29.95,SSW,213,0.0,4.2,95,0.00,,---,0.00,26.00,VWS V14.01,2013-08-01 12:27:00,
2013-08-01 07:30:00,78.5,76.9,29.95,SSW,213,3.0,6.2,95,0.00,,---,0.00,28.00,VWS V14.01,2013-08-01 12:30:00,
2013-08-01 07:32:00,78.5,76.9,29.95,SSW,213,2.0,6.2,95,0.00,,---,0.00,30.00,VWS V14.01,2013-08-01 12:32:00,
2013-08-01 07:35:00,78.6,76.7,29.95,SSW,213,3.0,6.2,94,0.00,,---,0.00,33.00,VWS V14.01,2013-08-01 12:35:00,
2013-08-01 07:38:00,78.6,76.7,29.95,SSW,213,4.0,5.2,94,0.00,,---,0.00,33.00,VWS V14.01,2013-08-01 12:38:00,
2013-08-01 07:40:00,78.8,76.9,29.95,SSW,213,0.0,5.2,94,0.00,,---,0.00,37.00,VWS V14.01,2013-08-01 12:40:00,
2013-08-01 07:43:00,79.0,77.1,29.95,SSW,213,3.0,5.2,94,0.00,,---,0.00,39.00,VWS V14.01,2013-08-01 12:43:00,
2013-08-01 07:45:00,79.2,77.0,29.95,SSW,213,1.0,5.2,93,0.00,,---,0.00,39.00,VWS V14.01,2013-08-01 12:45:00,
2013-08-01 07:49:00,79.2,77.0,29.95,SSW,213,2.0,5.2,93,0.00,,---,0.00,40.00,VWS V14.01,2013-08-01 12:49:00,
2013-08-01 07:50:00,79.4,77.2,29.95,SSW,213,2.0,5.2,93,0.00,,---,0.00,42.00,VWS V14.01,2013-08-01 12:50:00,
2013-08-01 07:54:00,79.6,77.1,29.95,SSW,213,3.0,6.2,92,0.00,,---,0.00,44.00,VWS V14.01,2013-08-01 12:54:00,
2013-08-01 07:55:00,79.6,77.1,29.95,SSW,213,1.0,6.2,92,0.00,,---,0.00,44.00,VWS V14.01,2013-08-01 12:55:00,
2013-08-01 07:59:00,79.8,77.3,29.95,SSW,213,1.0,3.2,92,0.00,,---,0.00,44.00,VWS V14.01,2013-08-01 12:59:00,
2013-08-01 08:00:00,79.9,77.4,29.95,SSW,207,4.0,6.2,92,0.00,,---,0.00,46.00,VWS V14.01,2013-08-01 13:00:00,
2013-08-01 08:04:00,80.1,77.2,29.95,SSW,207,2.0,5.2,91,0.00,,---,0.00,46.00,VWS V14.01,2013-08-01 13:04:00,
2013-08-01 08:05:00,80.1,77.2,29.95,SSW,207,1.0,5.2,91,0.00,,---,0.00,46.00,VWS V14.01,2013-08-01 13:05:00,
2013-08-01 08:09:00,80.3,77.1,29.95,SSW,207,1.0,6.2,90,0.00,,---,0.00,47.00,VWS V14.01,2013-08-01 13:09:00,
2013-08-01 08:10:00,80.5,77.3,29.95,SSW,207,0.0,6.2,90,0.00,,---,0.00,47.00,VWS V14.01,2013-08-01 13:10:00,
2013-08-01 08:14:00,80.7,77.2,29.95,SSW,202,2.0,8.2,89,0.00,,---,0.00,49.00,VWS V14.01,2013-08-01 13:14:00,
2013-08-01 08:15:00,80.9,77.4,29.95,SSW,202,4.0,8.2,89,0.00,,---,0.00,49.00,VWS V14.01,2013-08-01 13:15:00,
2013-08-01 08:19:00,81.1,77.2,29.95,SSW,210,6.0,7.2,88,0.00,,---,0.00,49.00,VWS V14.01,2013-08-01 13:19:00,
2013-08-01 08:20:00,81.1,77.2,29.95,SSW,209,4.0,7.2,88,0.00,,---,0.00,51.00,VWS V14.01,2013-08-01 13:20:00,
2013-08-01 08:25:00,81.2,77.0,29.95,South,191,6.0,8.2,87,0.00,,---,0.00,51.00,VWS V14.01,2013-08-01 13:25:00,
2013-08-01 08:30:00,81.6,77.0,29.95,SSW,205,6.0,10.2,86,0.00,,---,0.00,54.00,VWS V14.01,2013-08-01 13:30:00,
2013-08-01 08:35:00,81.8,76.5,29.95,South,191,6.0,10.2,84,0.00,,---,0.00,69.00,VWS V14.01,2013-08-01 13:35:00,
2013-08-01 08:40:00,82.0,76.7,29.95,SW,224,8.0,11.2,84,0.00,,---,0.00,84.00,VWS V14.01,2013-08-01 13:40:00,
2013-08-01 08:45:00,82.0,76.7,29.94,SSW,203,5.0,11.2,84,0.00,,---,0.00,97.00,VWS V14.01,2013-08-01 13:45:00,
2013-08-01 08:50:00,82.2,76.5,29.94,SSW,202,6.0,11.2,83,0.00,,---,0.00,97.00,VWS V14.01,2013-08-01 13:50:00,
2013-08-01 08:55:00,82.6,76.6,29.94,SW,217,3.0,7.2,82,0.00,,---,0.00,98.00,VWS V14.01,2013-08-01 13:55:00,
2013-08-01 08:56:00,82.6,76.6,29.94,SW,217,2.0,7.2,82,0.00,,---,0.00,98.00,VWS V14.01,2013-08-01 13:56:00,
2013-08-01 09:00:00,82.8,76.4,29.94,SSW,213,10.0,12.2,81,0.00,,---,0.00,132.00,VWS V14.01,2013-08-01 14:00:00,
2013-08-01 09:01:00,82.8,76.4,29.94,SW,231,11.0,12.2,81,0.00,,---,0.00,132.00,VWS V14.01,2013-08-01 14:01:00,
2013-08-01 09:05:00,83.0,76.2,29.94,South,169,5.0,15.2,80,0.00,,---,0.00,193.00,VWS V14.01,2013-08-01 14:05:00,
2013-08-01 09:07:00,83.0,76.2,29.94,SSW,200,4.0,9.2,80,0.00,,---,0.00,193.00,VWS V14.01,2013-08-01 14:07:00,
2013-08-01 09:10:00,83.2,76.4,29.94,WSW,242,3.0,10.2,80,0.00,,---,0.00,271.00,VWS V14.01,2013-08-01 14:10:00,
2013-08-01 09:12:00,83.2,76.4,29.94,SSW,210,9.0,12.2,80,0.00,,---,0.00,311.00,VWS V14.01,2013-08-01 14:12:00,
2013-08-01 09:15:00,83.6,76.4,29.93,SW,232,5.0,13.2,79,0.00,,---,0.00,352.00,VWS V14.01,2013-08-01 14:15:00,
2013-08-01 09:17:00,83.6,76.0,29.93,SSW,207,9.0,13.2,78,0.00,,---,0.00,352.00,VWS V14.01,2013-08-01 14:17:00,
2013-08-01 09:20:00,83.8,76.2,29.93,South,184,6.0,14.2,78,0.00,,---,0.00,424.00,VWS V14.01,2013-08-01 14:20:00,
2013-08-01 09:22:00,83.8,76.2,29.93,South,172,5.0,11.2,78,0.00,,---,0.00,427.00,VWS V14.01,2013-08-01 14:22:00,
2013-08-01 09:25:00,84.1,76.5,29.93,SW,234,7.0,11.2,78,0.00,,---,0.00,462.00,VWS V14.01,2013-08-01 14:25:00,
2013-08-01 09:27:00,84.1,76.1,29.93,SW,222,6.0,8.2,77,0.00,,---,0.00,475.00,VWS V14.01,2013-08-01 14:27:00,
2013-08-01 09:30:00,84.1,75.7,29.94,South,179,3.0,14.2,76,0.00,,---,0.00,475.00,VWS V14.01,2013-08-01 14:30:00,
2013-08-01 09:32:00,84.1,75.7,29.94,SSW,205,6.0,12.2,76,0.00,,---,0.00,468.00,VWS V14.01,2013-08-01 14:32:00,
2013-08-01 09:35:00,84.5,76.1,29.94,SSW,205,2.0,12.2,76,0.00,,---,0.00,475.00,VWS V14.01,2013-08-01 14:35:00,
2013-08-01 09:37:00,84.5,75.7,29.94,SW,214,7.0,12.2,75,0.00,,---,0.00,504.00,VWS V14.01,2013-08-01 14:37:00,
2013-08-01 09:40:00,84.7,75.9,29.94,South,178,1.0,12.2,75,0.00,,---,0.00,497.00,VWS V14.01,2013-08-01 14:40:00,
2013-08-01 09:43:00,84.9,75.7,29.94,South,178,1.0,4.2,74,0.00,,---,0.00,504.00,VWS V14.01,2013-08-01 14:43:00,
2013-08-01 09:45:00,85.3,75.7,29.95,SW,215,1.0,10.2,73,0.00,,---,0.00,504.00,VWS V14.01,2013-08-01 14:45:00,
2013-08-01 09:48:00,85.7,76.1,29.95,South,190,3.0,7.2,73,0.00,,---,0.00,515.00,VWS V14.01,2013-08-01 14:48:00,
2013-08-01 09:50:00,85.9,76.7,29.95,SSE,150,5.0,11.2,74,0.00,,---,0.00,526.00,VWS V14.01,2013-08-01 14:50:00,
2013-08-01 09:53:00,85.9,76.7,29.95,SE,144,2.0,7.2,74,0.00,,---,0.00,529.00,VWS V14.01,2013-08-01 14:53:00,
2013-08-01 09:55:00,86.1,76.8,29.95,SE,144,2.0,9.2,74,0.00,,---,0.00,538.00,VWS V14.01,2013-08-01 14:55:00,
2013-08-01 09:58:00,86.1,76.8,29.95,SE,128,3.0,13.2,74,0.00,,---,0.00,550.00,VWS V14.01,2013-08-01 14:58:00,
2013-08-01 10:00:00,86.3,77.0,29.95,SE,143,5.0,13.2,74,0.00,,---,0.00,561.00,VWS V14.01,2013-08-01 15:00:00,
2013-08-01 10:04:00,85.9,76.2,29.95,SE,128,6.0,12.2,73,0.00,,---,0.00,575.00,VWS V14.01,2013-08-01 15:04:00,
2013-08-01 10:05:00,85.7,76.5,29.95,SE,144,4.0,12.2,74,0.00,,---,0.00,582.00,VWS V14.01,2013-08-01 15:05:00,
2013-08-01 10:09:00,85.9,76.7,29.95,SE,146,4.0,8.2,74,0.00,,---,0.00,592.00,VWS V14.01,2013-08-01 15:09:00,
2013-08-01 10:10:00,86.3,77.0,29.95,SE,130,4.0,11.2,74,0.00,,---,0.00,601.00,VWS V14.01,2013-08-01 15:10:00,
2013-08-01 10:14:00,86.5,76.8,29.95,SSE,148,5.0,8.2,73,0.00,,---,0.00,605.00,VWS V14.01,2013-08-01 15:14:00,
2013-08-01 10:15:00,86.5,76.8,29.95,SSE,158,1.0,9.2,73,0.00,,---,0.00,606.00,VWS V14.01,2013-08-01 15:15:00,
2013-08-01 10:19:00,86.5,76.4,29.95,SE,143,3.0,9.2,72,0.00,,---,0.00,617.00,VWS V14.01,2013-08-01 15:19:00,
2013-08-01 10:20:00,86.3,76.2,29.95,SSE,149,5.0,10.2,72,0.00,,---,0.00,617.00,VWS V14.01,2013-08-01 15:20:00,
2013-08-01 10:24:00,85.9,75.8,29.95,SE,128,6.0,13.2,72,0.00,,---,0.00,628.00,VWS V14.01,2013-08-01 15:24:00,
2013-08-01 10:25:00,85.9,76.2,29.95,SE,129,7.0,13.2,73,0.00,,---,0.00,628.00,VWS V14.01,2013-08-01 15:25:00,
2013-08-01 10:30:00,86.3,75.8,29.95,SE,124,4.0,11.2,71,0.00,,---,0.00,643.00,VWS V14.01,2013-08-01 15:30:00,
2013-08-01 10:35:00,87.0,75.6,29.95,SE,134,6.0,7.2,69,0.00,,---,0.00,659.00,VWS V14.01,2013-08-01 15:35:00,
2013-08-01 10:40:00,87.6,75.7,29.95,SSE,165,4.0,11.2,68,0.00,,---,0.00,675.00,VWS V14.01,2013-08-01 15:40:00,
2013-08-01 10:41:00,87.4,75.6,29.95,SSE,165,4.0,11.2,68,0.00,,---,0.00,675.00,VWS V14.01,2013-08-01 15:41:00,
2013-08-01 10:45:00,88.0,73.8,29.95,SE,146,5.0,12.2,63,0.00,,---,0.00,657.00,VWS V14.01,2013-08-01 15:45:00,
2013-08-01 10:46:00,88.0,73.8,29.95,SSE,147,7.0,12.2,63,0.00,,---,0.00,657.00,VWS V14.01,2013-08-01 15:46:00,
2013-08-01 10:50:00,88.4,74.2,29.95,SE,134,7.0,13.2,63,0.00,,---,0.00,635.00,VWS V14.01,2013-08-01 15:50:00,
2013-08-01 10:51:00,88.4,74.2,29.95,SE,130,8.0,13.2,63,0.00,,---,0.00,635.00,VWS V14.01,2013-08-01 15:51:00,
2013-08-01 10:55:00,88.4,74.7,29.95,SSE,148,3.0,11.2,64,0.00,,---,0.00,670.00,VWS V14.01,2013-08-01 15:55:00,
2013-08-01 10:56:00,88.4,74.7,29.95,SSE,148,3.0,11.2,64,0.00,,---,0.00,670.00,VWS V14.01,2013-08-01 15:56:00,
2013-08-01 11:00:00,88.4,76.1,29.95,SE,139,3.0,11.2,67,0.00,,---,0.00,696.00,VWS V14.01,2013-08-01 16:00:00,
2013-08-01 11:01:00,88.4,76.1,29.95,SE,139,3.0,11.2,67,0.00,,---,0.00,696.00,VWS V14.01,2013-08-01 16:01:00,
2013-08-01 11:05:00,88.6,76.7,29.95,ESE,115,6.0,10.2,68,0.00,,---,0.00,715.00,VWS V14.01,2013-08-01 16:05:00,
2013-08-01 11:06:00,88.6,76.7,29.95,SE,132,6.0,7.2,68,0.00,,---,0.00,715.00,VWS V14.01,2013-08-01 16:06:00,
2013-08-01 11:10:00,88.6,76.2,29.95,SE,132,5.0,10.2,67,0.00,,---,0.00,751.00,VWS V14.01,2013-08-01 16:10:00,
2013-08-01 11:11:00,88.6,76.2,29.95,SE,132,3.0,6.2,67,0.00,,---,0.00,751.00,VWS V14.01,2013-08-01 16:11:00,
2013-08-01 11:15:00,88.8,76.9,29.95,SE,142,7.0,8.2,68,0.00,,---,0.00,779.00,VWS V14.01,2013-08-01 16:15:00,
2013-08-01 11:16:00,88.8,76.9,29.95,SE,140,10.0,11.2,68,0.00,,---,0.00,780.00,VWS V14.01,2013-08-01 16:16:00,
2013-08-01 11:20:00,88.2,76.8,29.95,SE,140,6.0,11.2,69,0.00,,---,0.00,796.00,VWS V14.01,2013-08-01 16:20:00,
2013-08-01 11:21:00,88.2,76.8,29.95,SE,140,4.0,7.2,69,0.00,,---,0.00,795.00,VWS V14.01,2013-08-01 16:21:00,
2013-08-01 11:25:00,89.0,77.1,29.95,East,98,4.0,11.2,68,0.00,,---,0.00,809.00,VWS V14.01,2013-08-01 16:25:00,
2013-08-01 11:27:00,89.0,76.6,29.95,East,90,3.0,5.2,67,0.00,,---,0.00,809.00,VWS V14.01,2013-08-01 16:27:00,
2013-08-01 11:30:00,89.3,76.9,29.95,SE,134,4.0,12.2,67,0.00,,---,0.00,809.00,VWS V14.01,2013-08-01 16:30:00,
2013-08-01 11:32:00,89.0,76.6,29.95,SE,137,4.0,8.2,67,0.00,,---,0.00,812.00,VWS V14.01,2013-08-01 16:32:00,
2013-08-01 11:35:00,88.8,77.3,29.95,ESE,109,7.0,10.2,69,0.00,,---,0.00,823.00,VWS V14.01,2013-08-01 16:35:00,
2013-08-01 11:37:00,88.8,77.3,29.95,ESE,103,7.0,8.2,69,0.00,,---,0.00,830.00,VWS V14.01,2013-08-01 16:37:00,
2013-08-01 11:40:00,88.8,77.3,29.95,East,93,4.0,11.2,69,0.00,,---,0.00,835.00,VWS V14.01,2013-08-01 16:40:00,
2013-08-01 11:42:00,88.8,77.3,29.95,SSE,153,6.0,8.2,69,0.00,,---,0.00,835.00,VWS V14.01,2013-08-01 16:42:00,
2013-08-01 11:45:00,89.0,76.6,29.95,SSE,153,4.0,12.2,67,0.00,,---,0.00,849.00,VWS V14.01,2013-08-01 16:45:00,
2013-08-01 11:47:00,89.0,77.1,29.95,ESE,107,7.0,10.2,68,0.00,,---,0.00,851.00,VWS V14.01,2013-08-01 16:47:00,
2013-08-01 11:50:00,89.7,77.3,29.95,ENE,66,5.0,10.2,67,0.00,,---,0.00,853.00,VWS V14.01,2013-08-01 16:50:00,
2013-08-01 11:52:00,90.1,77.7,29.95,East,101,7.0,10.2,67,0.00,,---,0.00,846.00,VWS V14.01,2013-08-01 16:52:00,
2013-08-01 11:55:00,90.5,78.1,29.95,SE,129,4.0,10.2,67,0.00,,---,0.00,861.00,VWS V14.01,2013-08-01 16:55:00,
2013-08-01 11:57:00,91.0,78.1,29.95,East,100,1.0,8.2,66,0.00,,---,0.00,867.00,VWS V14.01,2013-08-01 16:57:00,
2013-08-01 12:00:00,91.0,77.1,29.95,ESE,108,6.0,13.2,64,0.00,,---,0.00,847.00,VWS V14.01,2013-08-01 17:00:00,
2013-08-01 12:03:00,90.7,77.3,29.95,ESE,116,7.0,10.2,65,0.00,,---,0.00,847.00,VWS V14.01,2013-08-01 17:03:00,
2013-08-01 12:05:00,89.9,77.0,29.95,East,98,4.0,11.2,66,0.00,,---,0.00,870.00,VWS V14.01,2013-08-01 17:05:00,
2013-08-01 12:08:00,89.7,77.3,29.95,SE,140,9.0,10.2,67,0.00,,---,0.00,877.00,VWS V14.01,2013-08-01 17:08:00,
2013-08-01 12:10:00,89.7,76.8,29.95,SSE,154,6.0,12.2,66,0.00,,---,0.00,896.00,VWS V14.01,2013-08-01 17:10:00,
2013-08-01 12:13:00,89.5,76.2,29.95,East,90,4.0,11.2,65,0.00,,---,0.00,900.00,VWS V14.01,2013-08-01 17:13:00,
2013-08-01 12:15:00,89.5,76.2,29.94,South,169,3.0,11.2,65,0.00,,---,0.00,895.00,VWS V14.01,2013-08-01 17:15:00,
2013-08-01 12:18:00,89.5,76.7,29.94,SE,134,6.0,10.2,66,0.00,,---,0.00,891.00,VWS V14.01,2013-08-01 17:18:00,
2013-08-01 12:20:00,89.5,77.1,29.94,ESE,119,7.0,11.2,67,0.00,,---,0.00,889.00,VWS V14.01,2013-08-01 17:20:00,
2013-08-01 12:23:00,89.7,76.8,29.94,SE,145,6.0,11.2,66,0.00,,---,0.00,881.00,VWS V14.01,2013-08-01 17:23:00,
2013-08-01 12:25:00,89.5,77.1,29.94,SE,144,6.0,13.2,67,0.00,,---,0.00,881.00,VWS V14.01,2013-08-01 17:25:00,
2013-08-01 12:29:00,89.3,76.9,29.94,East,82,5.0,11.2,67,0.00,,---,0.00,907.00,VWS V14.01,2013-08-01 17:29:00,
2013-08-01 12:30:00,89.7,77.3,29.93,SE,144,6.0,11.2,67,0.00,,---,0.00,916.00,VWS V14.01,2013-08-01 17:30:00,
2013-08-01 12:34:00,89.7,77.3,29.93,ESE,102,8.0,12.2,67,0.00,,---,0.00,926.00,VWS V14.01,2013-08-01 17:34:00,
2013-08-01 12:35:00,89.7,75.9,29.93,East,83,7.0,12.2,64,0.00,,---,0.00,925.00,VWS V14.01,2013-08-01 17:35:00,
2013-08-01 12:39:00,89.7,76.8,29.93,ESE,116,7.0,11.2,66,0.00,,---,0.00,932.00,VWS V14.01,2013-08-01 17:39:00,
2013-08-01 12:40:00,89.5,76.7,29.93,ESE,121,6.0,11.2,66,0.00,,---,0.00,933.00,VWS V14.01,2013-08-01 17:40:00,
2013-08-01 12:44:00,89.9,77.0,29.93,SE,135,7.0,12.2,66,0.00,,---,0.00,937.00,VWS V14.01,2013-08-01 17:44:00,
2013-08-01 12:45:00,89.7,76.8,29.93,ESE,123,10.0,14.2,66,0.00,,---,0.00,937.00,VWS V14.01,2013-08-01 17:45:00,
2013-08-01 12:49:00,89.7,76.4,29.93,SSE,161,3.0,11.2,65,0.00,,---,0.00,947.00,VWS V14.01,2013-08-01 17:49:00,
2013-08-01 12:50:00,90.1,76.8,29.93,East,95,5.0,11.2,65,0.00,,---,0.00,949.00,VWS V14.01,2013-08-01 17:50:00,
2013-08-01 12:54:00,90.1,75.8,29.93,SE,129,8.0,13.2,63,0.00,,---,0.00,947.00,VWS V14.01,2013-08-01 17:54:00,
2013-08-01 12:55:00,90.1,75.8,29.93,East,88,5.0,13.2,63,0.00,,---,0.00,951.00,VWS V14.01,2013-08-01 17:55:00,
2013-08-01 12:59:00,90.5,76.2,29.93,SE,133,6.0,11.2,63,0.00,,---,0.00,953.00,VWS V14.01,2013-08-01 17:59:00,
2013-08-01 13:00:00,90.7,76.4,29.93,East,101,5.0,11.2,63,0.00,,---,0.00,954.00,VWS V14.01,2013-08-01 18:00:00,
2013-08-01 13:04:00,91.6,76.7,29.93,SE,128,5.0,12.2,62,0.00,,---,0.00,954.00,VWS V14.01,2013-08-01 18:04:00,
2013-08-01 13:05:00,91.4,76.6,29.93,SE,135,9.0,14.2,62,0.00,,---,0.00,960.00,VWS V14.01,2013-08-01 18:05:00,
2013-08-01 13:10:00,90.5,76.7,29.93,ESE,107,12.0,15.2,64,0.00,,---,0.00,962.00,VWS V14.01,2013-08-01 18:10:00,
2013-08-01 13:15:00,90.5,76.2,29.93,East,87,5.0,17.2,63,0.00,,---,0.00,962.00,VWS V14.01,2013-08-01 18:15:00,
2013-08-01 13:20:00,91.0,76.2,29.92,SE,136,5.0,14.2,62,0.00,,---,0.00,969.00,VWS V14.01,2013-08-01 18:20:00,
2013-08-01 13:25:00,90.7,76.4,29.92,ESE,123,4.0,14.2,63,0.00,,---,0.00,972.00,VWS V14.01,2013-08-01 18:25:00,
2013-08-01 13:30:00,90.5,76.2,29.92,SE,141,10.0,13.2,63,0.00,,---,0.00,969.00,VWS V14.01,2013-08-01 18:30:00,
2013-08-01 13:35:00,91.4,76.1,29.92,SE,126,11.0,12.2,61,0.00,,---,0.00,969.00,VWS V14.01,2013-08-01 18:35:00,
2013-08-01 13:40:00,91.0,75.7,29.92,SSE,150,9.0,13.2,61,0.00,,---,0.00,972.00,VWS V14.01,2013-08-01 18:40:00,
2013-08-01 13:45:00,90.1,75.8,29.92,SE,140,11.0,14.2,63,0.00,,---,0.00,970.00,VWS V14.01,2013-08-01 18:45:00,
2013-08-01 13:50:00,90.1,75.8,29.92,ESE,121,6.0,17.2,63,0.00,,---,0.00,969.00,VWS V14.01,2013-08-01 18:50:00,
2013-08-01 13:51:00,90.1,75.8,29.92,East,97,16.0,17.2,63,0.00,,---,0.00,969.00,VWS V14.01,2013-08-01 18:51:00,
2013-08-01 13:55:00,89.7,75.4,29.92,ESE,118,12.0,14.2,63,0.00,,---,0.00,967.00,VWS V14.01,2013-08-01 18:55:00,
2013-08-01 13:56:00,89.7,75.4,29.92,SSE,152,10.0,14.2,63,0.00,,---,0.00,967.00,VWS V14.01,2013-08-01 18:56:00,
2013-08-01 14:00:00,89.7,76.8,29.92,ENE,78,9.0,14.2,66,0.00,,---,0.00,965.00,VWS V14.01,2013-08-01 19:00:00,
2013-08-01 14:01:00,89.7,76.4,29.92,SSE,148,10.0,11.2,65,0.00,,---,0.00,965.00,VWS V14.01,2013-08-01 19:01:00,
2013-08-01 14:05:00,91.0,75.7,29.92,ESE,109,7.0,13.2,61,0.00,,---,0.00,963.00,VWS V14.01,2013-08-01 19:05:00,
2013-08-01 14:07:00,91.0,76.2,29.92,ENE,71,6.0,8.2,62,0.00,,---,0.00,963.00,VWS V14.01,2013-08-01 19:07:00,
2013-08-01 14:10:00,90.7,75.9,29.92,ESE,106,10.0,13.2,62,0.00,,---,0.00,958.00,VWS V14.01,2013-08-01 19:10:00,
2013-08-01 14:12:00,90.7,75.9,29.92,SE,132,6.0,11.2,62,0.00,,---,0.00,958.00,VWS V14.01,2013-08-01 19:12:00,
2013-08-01 14:15:00,90.5,75.7,29.92,SE,134,8.0,14.2,62,0.00,,---,0.00,960.00,VWS V14.01,2013-08-01 19:15:00,
2013-08-01 14:17:00,90.3,75.5,29.92,SSE,151,10.0,11.2,62,0.00,,---,0.00,956.00,VWS V14.01,2013-08-01 19:17:00,
2013-08-01 14:20:00,90.3,75.5,29.92,SE,142,7.0,13.2,62,0.00,,---,0.00,954.00,VWS V14.01,2013-08-01 19:20:00,
2013-08-01 14:22:00,90.3,75.5,29.92,SE,129,10.0,12.2,62,0.00,,---,0.00,954.00,VWS V14.01,2013-08-01 19:22:00,
2013-08-01 14:25:00,90.1,75.8,29.92,ESE,117,6.0,14.2,63,0.00,,---,0.00,951.00,VWS V14.01,2013-08-01 19:25:00,
2013-08-01 14:27:00,90.5,76.2,29.92,ESE,122,9.0,15.2,63,0.00,,---,0.00,947.00,VWS V14.01,2013-08-01 19:27:00,
2013-08-01 14:30:00,91.0,76.2,29.91,SE,127,13.0,16.2,62,0.00,,---,0.00,949.00,VWS V14.01,2013-08-01 19:30:00,
2013-08-01 14:32:00,91.0,75.7,29.91,SE,131,7.0,15.2,61,0.00,,---,0.00,944.00,VWS V14.01,2013-08-01 19:32:00,
2013-08-01 14:35:00,91.0,75.2,29.91,SE,138,14.0,15.2,60,0.00,,---,0.00,940.00,VWS V14.01,2013-08-01 19:35:00,
2013-08-01 14:37:00,90.7,75.4,29.91,ESE,119,8.0,15.2,61,0.00,,---,0.00,939.00,VWS V14.01,2013-08-01 19:37:00,
2013-08-01 14:40:00,90.5,76.2,29.91,ESE,123,9.0,15.2,63,0.00,,---,0.00,933.00,VWS V14.01,2013-08-01 19:40:00,
2013-08-01 14:42:00,90.3,76.0,29.91,ESE,105,10.0,16.2,63,0.00,,---,0.00,933.00,VWS V14.01,2013-08-01 19:42:00,
2013-08-01 14:45:00,90.3,75.5,29.91,SE,140,4.0,16.2,62,0.00,,---,0.00,928.00,VWS V14.01,2013-08-01 19:45:00,
2013-08-01 14:47:00,90.5,75.7,29.91,SE,126,8.0,12.2,62,0.00,,---,0.00,928.00,VWS V14.01,2013-08-01 19:47:00,
2013-08-01 14:50:00,90.5,76.2,29.91,SE,146,11.0,16.2,63,0.00,,---,0.00,925.00,VWS V14.01,2013-08-01 19:50:00,
2013-08-01 14:52:00,90.3,75.5,29.91,SE,134,10.0,15.2,62,0.00,,---,0.00,918.00,VWS V14.01,2013-08-01 19:52:00,
2013-08-01 14:55:00,90.1,75.8,29.91,ESE,102,4.0,15.2,63,0.00,,---,0.00,914.00,VWS V14.01,2013-08-01 19:55:00,
2013-08-01 14:57:00,90.7,75.4,29.91,ESE,107,6.0,15.2,61,0.00,,---,0.00,914.00,VWS V14.01,2013-08-01 19:57:00,
2013-08-01 15:00:00,90.5,74.7,29.90,SE,129,12.0,15.2,60,0.00,,---,0.00,911.00,VWS V14.01,2013-08-01 20:00:00,
2013-08-01 15:03:00,90.1,74.8,29.90,SSE,151,6.0,14.2,61,0.00,,---,0.00,907.00,VWS V14.01,2013-08-01 20:03:00,
2013-08-01 15:05:00,90.1,75.3,29.90,ESE,104,9.0,17.2,62,0.00,,---,0.00,898.00,VWS V14.01,2013-08-01 20:05:00,
2013-08-01 15:08:00,90.1,75.8,29.90,ESE,123,12.0,17.2,63,0.00,,---,0.00,896.00,VWS V14.01,2013-08-01 20:08:00,
2013-08-01 15:10:00,90.1,75.8,29.90,East,99,5.0,17.2,63,0.00,,---,0.00,893.00,VWS V14.01,2013-08-01 20:10:00,
2013-08-01 15:13:00,90.1,76.3,29.90,ESE,104,12.0,14.2,64,0.00,,---,0.00,888.00,VWS V14.01,2013-08-01 20:13:00,
2013-08-01 15:15:00,89.9,75.1,29.90,SSE,159,13.0,15.2,62,0.00,,---,0.00,884.00,VWS V14.01,2013-08-01 20:15:00,
2013-08-01 15:18:00,89.9,75.6,29.90,SE,143,13.0,17.2,63,0.00,,---,0.00,881.00,VWS V14.01,2013-08-01 20:18:00,
2013-08-01 15:20:00,90.3,76.0,29.90,SE,130,10.0,17.2,63,0.00,,---,0.00,874.00,VWS V14.01,2013-08-01 20:20:00,
2013-08-01 15:23:00,90.5,76.2,29.90,East,88,4.0,13.2,63,0.00,,---,0.00,868.00,VWS V14.01,2013-08-01 20:23:00,
2013-08-01 15:25:00,90.1,76.3,29.90,ESE,117,7.0,13.2,64,0.00,,---,0.00,861.00,VWS V14.01,2013-08-01 20:25:00,
2013-08-01 15:28:00,90.1,75.8,29.90,SE,142,4.0,11.2,63,0.00,,---,0.00,861.00,VWS V14.01,2013-08-01 20:28:00,
2013-08-01 15:30:00,89.9,76.1,29.90,SE,130,7.0,12.2,64,0.00,,---,0.00,854.00,VWS V14.01,2013-08-01 20:30:00,
2013-08-01 15:33:00,90.3,76.0,29.90,ENE,64,7.0,12.2,63,0.00,,---,0.00,849.00,VWS V14.01,2013-08-01 20:33:00,
2013-08-01 15:35:00,90.7,76.4,29.90,East,98,6.0,12.2,63,0.00,,---,0.00,846.00,VWS V14.01,2013-08-01 20:35:00,
2013-08-01 15:38:00,90.5,75.7,29.90,East,84,9.0,13.2,62,0.00,,---,0.00,842.00,VWS V14.01,2013-08-01 20:38:00,
2013-08-01 15:40:00,90.1,75.8,29.90,SE,135,10.0,13.2,63,0.00,,---,0.00,837.00,VWS V14.01,2013-08-01 20:40:00,
2013-08-01 15:45:00,90.5,75.7,29.89,East,94,13.0,14.2,62,0.00,,---,0.00,826.00,VWS V14.01,2013-08-01 20:45:00,
2013-08-01 15:50:00,91.6,76.2,29.89,SE,132,11.0,14.2,61,0.00,,---,0.00,814.00,VWS V14.01,2013-08-01 20:50:00,
2013-08-01 15:55:00,91.2,76.8,29.89,ESE,102,12.0,15.2,63,0.00,,---,0.00,803.00,VWS V14.01,2013-08-01 20:55:00,
2013-08-01 15:56:00,91.2,76.8,29.89,East,85,6.0,15.2,63,0.00,,---,0.00,803.00,VWS V14.01,2013-08-01 20:56:00,
2013-08-01 16:00:00,90.7,77.3,29.89,ESE,103,8.0,15.2,65,0.00,,---,0.00,791.00,VWS V14.01,2013-08-01 21:00:00,
2013-08-01 16:01:00,90.7,76.8,29.89,East,91,13.0,17.2,64,0.00,,---,0.00,791.00,VWS V14.01,2013-08-01 21:01:00,
2013-08-01 16:05:00,90.1,76.8,29.89,ESE,117,6.0,17.2,65,0.00,,---,0.00,777.00,VWS V14.01,2013-08-01 21:05:00,
2013-08-01 16:06:00,90.1,76.8,29.89,SSE,149,7.0,8.2,65,0.00,,---,0.00,777.00,VWS V14.01,2013-08-01 21:06:00,
2013-08-01 16:10:00,90.3,77.4,29.89,SE,132,11.0,14.2,66,0.00,,---,0.00,768.00,VWS V14.01,2013-08-01 21:10:00,
2013-08-01 16:11:00,90.3,77.4,29.89,SE,137,8.0,15.2,66,0.00,,---,0.00,766.00,VWS V14.01,2013-08-01 21:11:00,
2013-08-01 16:15:00,91.0,77.1,29.88,East,92,7.0,15.2,64,0.00,,---,0.00,756.00,VWS V14.01,2013-08-01 21:15:00,
2013-08-01 16:16:00,91.0,77.1,29.88,East,99,10.0,13.2,64,0.00,,---,0.00,754.00,VWS V14.01,2013-08-01 21:16:00,
2013-08-01 16:20:00,90.5,76.7,29.88,SE,128,9.0,18.2,64,0.00,,---,0.00,735.00,VWS V14.01,2013-08-01 21:20:00,
2013-08-01 16:22:00,90.3,76.5,29.88,East,99,12.0,14.2,64,0.00,,---,0.00,737.00,VWS V14.01,2013-08-01 21:22:00,
2013-08-01 16:25:00,89.5,76.7,29.88,ESE,117,12.0,15.2,66,0.00,,---,0.00,726.00,VWS V14.01,2013-08-01 21:25:00,
2013-08-01 16:27:00,89.5,76.7,29.88,SE,132,12.0,14.2,66,0.00,,---,0.00,726.00,VWS V14.01,2013-08-01 21:27:00,
2013-08-01 16:30:00,89.5,77.1,29.88,ESE,104,7.0,14.2,67,0.00,,---,0.00,715.00,VWS V14.01,2013-08-01 21:30:00,
2013-08-01 16:32:00,89.7,77.3,29.88,SE,137,10.0,11.2,67,0.00,,---,0.00,710.00,VWS V14.01,2013-08-01 21:32:00,
2013-08-01 16:35:00,89.9,76.6,29.88,ESE,109,9.0,14.2,65,0.00,,---,0.00,694.00,VWS V14.01,2013-08-01 21:35:00,
2013-08-01 16:37:00,89.9,77.0,29.88,SE,126,10.0,16.2,66,0.00,,---,0.00,694.00,VWS V14.01,2013-08-01 21:37:00,
2013-08-01 16:40:00,90.1,77.7,29.88,ESE,123,10.0,16.2,67,0.00,,---,0.00,670.00,VWS V14.01,2013-08-01 21:40:00,
2013-08-01 16:42:00,90.1,76.8,29.88,ESE,109,10.0,11.2,65,0.00,,---,0.00,670.00,VWS V14.01,2013-08-01 21:42:00,
2013-08-01 16:45:00,89.9,76.6,29.87,SE,139,6.0,16.2,65,0.00,,---,0.00,657.00,VWS V14.01,2013-08-01 21:45:00,
2013-08-01 16:47:00,89.9,77.0,29.87,SE,142,7.0,13.2,66,0.00,,---,0.00,652.00,VWS V14.01,2013-08-01 21:47:00,
2013-08-01 16:50:00,89.5,77.1,29.87,SSE,157,8.0,15.2,67,0.00,,---,0.00,636.00,VWS V14.01,2013-08-01 21:50:00,
2013-08-01 16:52:00,89.5,77.1,29.87,SE,133,10.0,13.2,67,0.00,,---,0.00,636.00,VWS V14.01,2013-08-01 21:52:00,
2013-08-01 16:55:00,88.8,76.9,29.87,East,100,4.0,16.2,68,0.00,,---,0.00,621.00,VWS V14.01,2013-08-01 21:55:00,
2013-08-01 16:57:00,89.0,77.1,29.87,ESE,115,11.0,13.2,68,0.00,,---,0.00,621.00,VWS V14.01,2013-08-01 21:57:00,
2013-08-01 17:00:00,88.8,76.9,29.87,East,100,8.0,15.2,68,0.00,,---,0.00,612.00,VWS V14.01,2013-08-01 22:00:00,
2013-08-01 17:02:00,89.3,77.4,29.87,SE,132,13.0,14.2,68,0.00,,---,0.00,608.00,VWS V14.01,2013-08-01 22:02:00,
2013-08-01 17:05:00,89.7,77.3,29.87,East,101,7.0,16.2,67,0.00,,---,0.00,598.00,VWS V14.01,2013-08-01 22:05:00,
2013-08-01 17:07:00,89.9,77.5,29.87,SE,130,7.0,11.2,67,0.00,,---,0.00,594.00,VWS V14.01,2013-08-01 22:07:00,
2013-08-01 17:10:00,90.1,76.8,29.87,East,89,9.0,13.2,65,0.00,,---,0.00,582.00,VWS V14.01,2013-08-01 22:10:00,
2013-08-01 17:12:00,90.1,76.8,29.87,SE,128,4.0,10.2,65,0.00,,---,0.00,578.00,VWS V14.01,2013-08-01 22:12:00,
2013-08-01 17:15:00,89.9,77.0,29.87,SE,135,4.0,14.2,66,0.00,,---,0.00,570.00,VWS V14.01,2013-08-01 22:15:00,
2013-08-01 17:17:00,89.7,76.4,29.87,SE,128,7.0,15.2,65,0.00,,---,0.00,568.00,VWS V14.01,2013-08-01 22:17:00,
2013-08-01 17:20:00,89.3,76.9,29.87,ESE,121,10.0,16.2,67,0.00,,---,0.00,555.00,VWS V14.01,2013-08-01 22:20:00,
2013-08-01 17:22:00,89.3,76.5,29.87,SE,131,9.0,13.2,66,0.00,,---,0.00,554.00,VWS V14.01,2013-08-01 22:22:00,
2013-08-01 17:25:00,89.0,75.7,29.87,SE,132,5.0,17.2,65,0.00,,---,0.00,543.00,VWS V14.01,2013-08-01 22:25:00,
2013-08-01 17:27:00,89.0,76.2,29.87,ESE,119,11.0,16.2,66,0.00,,---,0.00,536.00,VWS V14.01,2013-08-01 22:27:00,
2013-08-01 17:30:00,89.7,76.8,29.87,East,101,6.0,16.2,66,0.00,,---,0.00,524.00,VWS V14.01,2013-08-01 22:30:00,
2013-08-01 17:32:00,89.7,75.9,29.87,ESE,122,11.0,12.2,64,0.00,,---,0.00,520.00,VWS V14.01,2013-08-01 22:32:00,
2013-08-01 17:35:00,89.3,76.9,29.87,SSE,152,10.0,14.2,67,0.00,,---,0.00,504.00,VWS V14.01,2013-08-01 22:35:00,
2013-08-01 17:37:00,89.3,76.5,29.87,SE,128,6.0,12.2,66,0.00,,---,0.00,492.00,VWS V14.01,2013-08-01 22:37:00,
2013-08-01 17:40:00,89.0,76.6,29.87,East,93,4.0,14.2,67,0.00,,---,0.00,496.00,VWS V14.01,2013-08-01 22:40:00,
2013-08-01 17:42:00,89.3,76.5,29.87,ESE,121,9.0,10.2,66,0.00,,---,0.00,492.00,VWS V14.01,2013-08-01 22:42:00,
2013-08-01 17:45:00,89.3,76.5,29.87,ESE,106,6.0,15.2,66,0.00,,---,0.00,480.00,VWS V14.01,2013-08-01 22:45:00,
2013-08-01 17:47:00,89.3,76.9,29.87,ESE,109,5.0,11.2,67,0.00,,---,0.00,475.00,VWS V14.01,2013-08-01 22:47:00,
2013-08-01 17:50:00,89.3,76.0,29.87,ESE,108,13.0,18.2,65,0.00,,---,0.00,461.00,VWS V14.01,2013-08-01 22:50:00,
2013-08-01 17:53:00,89.5,75.7,29.87,SE,134,7.0,15.2,64,0.00,,---,0.00,461.00,VWS V14.01,2013-08-01 22:53:00,
2013-08-01 17:55:00,89.3,76.5,29.87,East,97,7.0,15.2,66,0.00,,---,0.00,438.00,VWS V14.01,2013-08-01 22:55:00,
2013-08-01 17:58:00,89.3,76.5,29.87,SE,124,9.0,13.2,66,0.00,,---,0.00,438.00,VWS V14.01,2013-08-01 22:58:00,
2013-08-01 18:00:00,89.0,76.6,29.86,SE,128,12.0,15.2,67,0.00,,---,0.00,425.00,VWS V14.01,2013-08-01 23:00:00,
2013-08-01 18:03:00,88.6,75.8,29.86,East,97,9.0,16.2,66,0.00,,---,0.00,422.00,VWS V14.01,2013-08-01 23:03:00,
2013-08-01 18:05:00,88.4,76.5,29.86,ESE,122,7.0,16.2,68,0.00,,---,0.00,406.00,VWS V14.01,2013-08-01 23:05:00,
2013-08-01 18:08:00,88.4,76.5,29.86,SE,128,6.0,14.2,68,0.00,,---,0.00,401.00,VWS V14.01,2013-08-01 23:08:00,
2013-08-01 18:10:00,88.2,76.8,29.86,SE,130,7.0,14.2,69,0.00,,---,0.00,390.00,VWS V14.01,2013-08-01 23:10:00,
2013-08-01 18:13:00,88.2,76.8,29.86,ESE,118,9.0,12.2,69,0.00,,---,0.00,383.00,VWS V14.01,2013-08-01 23:13:00,
2013-08-01 18:15:00,88.2,76.8,29.86,SE,145,9.0,13.2,69,0.00,,---,0.00,376.00,VWS V14.01,2013-08-01 23:15:00,
2013-08-01 18:18:00,88.2,76.8,29.86,ESE,105,10.0,15.2,69,0.00,,---,0.00,366.00,VWS V14.01,2013-08-01 23:18:00,
2013-08-01 18:20:00,88.4,76.5,29.86,ESE,111,9.0,15.2,68,0.00,,---,0.00,359.00,VWS V14.01,2013-08-01 23:20:00,
2013-08-01 18:23:00,88.6,76.2,29.86,SE,127,6.0,12.2,67,0.00,,---,0.00,352.00,VWS V14.01,2013-08-01 23:23:00,
2013-08-01 18:25:00,88.4,76.5,29.86,East,87,7.0,13.2,68,0.00,,---,0.00,341.00,VWS V14.01,2013-08-01 23:25:00,
2013-08-01 18:28:00,88.0,77.0,29.86,ESE,107,5.0,13.2,70,0.00,,---,0.00,334.00,VWS V14.01,2013-08-01 23:28:00,
2013-08-01 18:30:00,87.8,76.8,29.86,ESE,121,10.0,13.2,70,0.00,,---,0.00,320.00,VWS V14.01,2013-08-01 23:30:00,
2013-08-01 18:33:00,87.6,76.6,29.86,SE,126,6.0,11.2,70,0.00,,---,0.00,311.00,VWS V14.01,2013-08-01 23:33:00,
2013-08-01 18:35:00,87.6,76.6,29.86,ENE,74,7.0,16.2,70,0.00,,---,0.00,302.00,VWS V14.01,2013-08-01 23:35:00,
2013-08-01 18:38:00,87.6,76.6,29.86,SSE,151,8.0,13.2,70,0.00,,---,0.00,285.00,VWS V14.01,2013-08-01 23:38:00,
2013-08-01 18:40:00,87.4,76.4,29.86,SE,140,4.0,15.2,70,0.00,,---,0.00,283.00,VWS V14.01,2013-08-01 23:40:00,
2013-08-01 18:43:00,87.4,76.4,29.86,ESE,123,8.0,13.2,70,0.00,,---,0.00,279.00,VWS V14.01,2013-08-01 23:43:00,
2013-08-01 18:45:00,87.8,76.8,29.86,SE,128,7.0,13.2,70,0.00,,---,0.00,264.00,VWS V14.01,2013-08-01 23:45:00,
2013-08-01 18:48:00,88.0,77.0,29.86,ESE,105,5.0,11.2,70,0.00,,---,0.00,255.00,VWS V14.01,2013-08-01 23:48:00,
2013-08-01 18:50:00,87.8,76.8,29.86,SSE,154,7.0,14.2,70,0.00,,---,0.00,243.00,VWS V14.01,2013-08-01 23:50:00,
2013-08-01 18:54:00,87.6,77.0,29.86,East,98,9.0,13.2,71,0.00,,---,0.00,221.00,VWS V14.01,2013-08-01 23:54:00,
2013-08-01 18:55:00,87.4,76.8,29.86,East,98,11.0,16.2,71,0.00,,---,0.00,206.00,VWS V14.01,2013-08-01 23:55:00,
2013-08-01 18:59:00,86.7,76.6,29.86,ESE,109,11.0,15.2,72,0.00,,---,0.00,204.00,VWS V14.01,2013-08-01 23:59:00,
2013-08-01 19:00:00,86.5,76.8,29.86,ESE,109,12.0,15.2,73,0.00,,---,0.00,192.00,VWS V14.01,2013-08-02 00:00:00,
2013-08-01 19:04:00,86.1,76.4,29.86,East,97,12.0,14.2,73,0.00,,---,0.00,178.00,VWS V14.01,2013-08-02 00:04:00,
2013-08-01 19:05:00,86.1,76.8,29.86,SSE,155,14.0,15.2,74,0.00,,---,0.00,167.00,VWS V14.01,2013-08-02 00:05:00,
2013-08-01 19:09:00,86.1,76.8,29.86,ESE,103,5.0,15.2,74,0.00,,---,0.00,160.00,VWS V14.01,2013-08-02 00:09:00,
2013-08-01 19:10:00,86.5,77.2,29.86,SE,132,4.0,15.2,74,0.00,,---,0.00,155.00,VWS V14.01,2013-08-02 00:10:00,
2013-08-01 19:14:00,86.7,77.0,29.86,ESE,115,11.0,16.2,73,0.00,,---,0.00,146.00,VWS V14.01,2013-08-02 00:14:00,
2013-08-01 19:15:00,86.3,77.0,29.86,ESE,111,6.0,16.2,74,0.00,,---,0.00,137.00,VWS V14.01,2013-08-02 00:15:00,
2013-08-01 19:19:00,86.1,76.8,29.86,East,97,4.0,12.2,74,0.00,,---,0.00,127.00,VWS V14.01,2013-08-02 00:19:00,
2013-08-01 19:20:00,85.9,77.1,29.86,SE,124,10.0,13.2,75,0.00,,---,0.00,116.00,VWS V14.01,2013-08-02 00:20:00,
2013-08-01 19:24:00,85.5,76.7,29.86,East,91,7.0,14.2,75,0.00,,---,0.00,109.00,VWS V14.01,2013-08-02 00:24:00,
2013-08-01 19:25:00,85.3,76.9,29.86,ESE,105,10.0,14.2,76,0.00,,---,0.00,104.00,VWS V14.01,2013-08-02 00:25:00,
2013-08-01 19:29:00,85.1,76.7,29.86,SE,124,9.0,17.2,76,0.00,,---,0.00,91.00,VWS V14.01,2013-08-02 00:29:00,
2013-08-01 19:30:00,85.1,77.1,29.86,ESE,118,7.0,17.2,77,0.00,,---,0.00,86.00,VWS V14.01,2013-08-02 00:30:00,
2013-08-01 19:34:00,84.9,76.9,29.85,ESE,111,6.0,14.2,77,0.00,,---,0.00,79.00,VWS V14.01,2013-08-02 00:34:00,
2013-08-01 19:35:00,85.1,77.1,29.86,ESE,103,10.0,14.2,77,0.00,,---,0.00,67.00,VWS V14.01,2013-08-02 00:35:00,
2013-08-01 19:39:00,85.1,77.1,29.85,ESE,110,10.0,14.2,77,0.00,,---,0.00,44.00,VWS V14.01,2013-08-02 00:39:00,
2013-08-01 19:40:00,85.1,77.1,29.86,ESE,109,6.0,14.2,77,0.00,,---,0.00,40.00,VWS V14.01,2013-08-02 00:40:00,
2013-08-01 19:44:00,84.7,76.7,29.85,East,80,9.0,11.2,77,0.00,,---,0.00,35.00,VWS V14.01,2013-08-02 00:44:00,
2013-08-01 19:45:00,84.5,76.9,29.86,East,86,9.0,15.2,78,0.00,,---,0.00,33.00,VWS V14.01,2013-08-02 00:45:00,
2013-08-01 19:49:00,84.3,77.1,29.86,East,100,5.0,13.2,79,0.00,,---,0.00,32.00,VWS V14.01,2013-08-02 00:49:00,
2013-08-01 19:50:00,84.3,77.1,29.86,ESE,109,5.0,15.2,79,0.00,,---,0.00,30.00,VWS V14.01,2013-08-02 00:50:00,
2013-08-01 19:54:00,84.3,77.1,29.86,SE,138,8.0,14.2,79,0.00,,---,0.00,26.00,VWS V14.01,2013-08-02 00:54:00,
2013-08-01 19:55:00,84.3,77.1,29.86,SE,126,6.0,14.2,79,0.00,,---,0.00,23.00,VWS V14.01,2013-08-02 00:55:00,
2013-08-01 19:59:00,84.1,77.3,29.86,ESE,115,6.0,14.2,80,0.00,,---,0.00,21.00,VWS V14.01,2013-08-02 00:59:00,
2013-08-01 20:00:00,84.1,77.3,29.86,ESE,109,9.0,14.2,80,0.00,,---,0.00,19.00,VWS V14.01,2013-08-02 01:00:00,
2013-08-01 20:05:00,84.3,77.1,29.86,East,95,9.0,16.2,79,0.00,,---,0.00,16.00,VWS V14.01,2013-08-02 01:05:00,
2013-08-01 20:10:00,84.7,77.1,29.86,ESE,116,11.0,14.2,78,0.00,,---,0.00,11.00,VWS V14.01,2013-08-02 01:10:00,
2013-08-01 20:15:00,84.1,77.3,29.86,ESE,104,4.0,12.2,80,0.00,,---,0.00,5.00,VWS V14.01,2013-08-02 01:15:00,
2013-08-01 20:20:00,84.0,77.2,29.86,SE,144,6.0,13.2,80,0.00,,---,0.00,0.00,VWS V14.01,2013-08-02 01:20:00,
2013-08-01 20:25:00,83.6,77.2,29.86,SE,136,11.0,12.2,81,0.00,,---,0.00,0.00,VWS V14.01,2013-08-02 01:25:00,
2013-08-01 20:30:00,83.4,77.3,29.86,ESE,122,7.0,11.2,82,0.00,,---,0.00,0.00,VWS V14.01,2013-08-02 01:30:00,
2013-08-01 20:35:00,83.8,77.3,29.86,ESE,106,4.0,12.2,81,0.00,,---,0.00,0.00,VWS V14.01,2013-08-02 01:35:00,
2013-08-01 20:40:00,83.6,77.2,29.86,SE,143,9.0,14.2,81,0.00,,---,0.00,0.00,VWS V14.01,2013-08-02 01:40:00,
2013-08-01 20:45:00,83.4,77.3,29.86,ESE,116,4.0,12.2,82,0.00,,---,0.00,0.00,VWS V14.01,2013-08-02 01:45:00,
2013-08-01 20:50:00,83.4,77.3,29.87,SE,146,5.0,14.2,82,0.00,,---,0.00,0.00,VWS V14.01,2013-08-02 01:50:00,
2013-08-01 20:55:00,83.4,77.3,29.87,East,101,6.0,11.2,82,0.00,,---,0.00,0.00,VWS V14.01,2013-08-02 01:55:00,
2013-08-01 21:00:00,83.6,77.5,29.87,SE,132,8.0,13.2,82,0.00,,---,0.00,0.00,VWS V14.01,2013-08-02 02:00:00,
2013-08-01 21:05:00,84.0,77.5,29.87,SE,125,5.0,12.2,81,0.00,,---,0.00,0.00,VWS V14.01,2013-08-02 02:05:00,
2013-08-01 21:10:00,83.8,77.3,29.87,SE,138,2.0,13.2,81,0.00,,---,0.00,0.00,VWS V14.01,2013-08-02 02:10:00,
2013-08-01 21:11:00,83.8,77.3,29.87,SSE,154,8.0,13.2,81,0.00,,---,0.00,0.00,VWS V14.01,2013-08-02 02:11:00,
2013-08-01 21:15:00,83.4,77.3,29.87,ESE,120,2.0,12.2,82,0.00,,---,0.00,0.00,VWS V14.01,2013-08-02 02:15:00,
2013-08-01 21:16:00,83.4,77.3,29.87,ESE,119,3.0,12.2,82,0.00,,---,0.00,0.00,VWS V14.01,2013-08-02 02:16:00,
2013-08-01 21:20:00,83.0,77.3,29.87,SE,128,5.0,12.2,83,0.00,,---,0.00,0.00,VWS V14.01,2013-08-02 02:20:00,
2013-08-01 21:21:00,83.0,77.3,29.87,SE,126,4.0,12.2,83,0.00,,---,0.00,0.00,VWS V14.01,2013-08-02 02:21:00,
2013-08-01 21:25:00,82.8,77.5,29.87,ESE,111,8.0,13.2,84,0.00,,---,0.00,0.00,VWS V14.01,2013-08-02 02:25:00,
2013-08-01 21:26:00,82.8,77.5,29.87,SSE,154,6.0,13.2,84,0.00,,---,0.00,0.00,VWS V14.01,2013-08-02 02:26:00,
2013-08-01 21:30:00,82.8,77.5,29.87,SE,138,9.0,13.2,84,0.00,,---,0.00,0.00,VWS V14.01,2013-08-02 02:30:00,
2013-08-01 21:31:00,82.8,77.5,29.87,SE,125,9.0,13.2,84,0.00,,---,0.00,0.00,VWS V14.01,2013-08-02 02:31:00,
2013-08-01 21:35:00,83.2,77.5,29.87,SE,137,3.0,14.2,83,0.00,,---,0.00,0.00,VWS V14.01,2013-08-02 02:35:00,
2013-08-01 21:36:00,83.2,77.5,29.87,SE,137,4.0,14.2,83,0.00,,---,0.00,0.00,VWS V14.01,2013-08-02 02:36:00,
2013-08-01 21:40:00,83.0,77.3,29.87,SSE,150,6.0,12.2,83,0.00,,---,0.00,0.00,VWS V14.01,2013-08-02 02:40:00,
2013-08-01 21:41:00,83.0,77.3,29.87,SSE,155,9.0,12.2,83,0.00,,---,0.00,0.00,VWS V14.01,2013-08-02 02:41:00,
2013-08-01 21:45:00,82.8,77.1,29.87,SSE,147,10.0,13.2,83,0.00,,---,0.00,0.00,VWS V14.01,2013-08-02 02:45:00,
2013-08-01 21:46:00,82.8,77.1,29.87,SSE,147,10.0,13.2,83,0.00,,---,0.00,0.00,VWS V14.01,2013-08-02 02:46:00,
2013-08-01 21:50:00,83.0,77.3,29.87,SE,137,7.0,13.2,83,0.00,,---,0.00,0.00,VWS V14.01,2013-08-02 02:50:00,
2013-08-01 21:51:00,83.0,77.3,29.87,SE,142,8.0,9.2,83,0.00,,---,0.00,0.00,VWS V14.01,2013-08-02 02:51:00,
2013-08-01 21:55:00,83.0,77.3,29.87,SE,137,6.0,13.2,83,0.00,,---,0.00,0.00,VWS V14.01,2013-08-02 02:55:00,
2013-08-01 21:56:00,83.0,77.3,29.87,SE,137,3.0,7.2,83,0.00,,---,0.00,0.00,VWS V14.01,2013-08-02 02:56:00,
2013-08-01 22:00:00,83.0,77.3,29.88,SE,140,9.0,11.2,83,0.00,,---,0.00,0.00,VWS V14.01,2013-08-02 03:00:00,
2013-08-01 22:02:00,83.0,77.3,29.88,SE,144,4.0,10.2,83,0.00,,---,0.00,0.00,VWS V14.01,2013-08-02 03:02:00,
2013-08-01 22:05:00,83.2,77.5,29.88,SE,130,7.0,12.2,83,0.00,,---,0.00,0.00,VWS V14.01,2013-08-02 03:05:00,
2013-08-01 22:07:00,83.2,77.5,29.88,SE,130,9.0,12.2,83,0.00,,---,0.00,0.00,VWS V14.01,2013-08-02 03:07:00,
2013-08-01 22:10:00,83.2,77.5,29.88,SE,140,1.0,12.2,83,0.00,,---,0.00,0.00,VWS V14.01,2013-08-02 03:10:00,
2013-08-01 22:12:00,83.2,77.5,29.88,SE,128,6.0,8.2,83,0.00,,---,0.00,0.00,VWS V14.01,2013-08-02 03:12:00,
2013-08-01 22:15:00,82.8,77.5,29.87,SE,140,4.0,12.2,84,0.00,,---,0.00,0.00,VWS V14.01,2013-08-02 03:15:00,
2013-08-01 22:17:00,82.6,77.3,29.87,SE,130,3.0,12.2,84,0.00,,---,0.00,0.00,VWS V14.01,2013-08-02 03:17:00,
2013-08-01 22:20:00,82.6,77.6,29.87,SE,140,6.0,12.2,85,0.00,,---,0.00,0.00,VWS V14.01,2013-08-02 03:20:00,
2013-08-01 22:22:00,82.4,77.4,29.87,SE,135,5.0,10.2,85,0.00,,---,0.00,0.00,VWS V14.01,2013-08-02 03:22:00,
2013-08-01 22:25:00,82.4,77.4,29.87,SSE,162,7.0,10.2,85,0.00,,---,0.00,0.00,VWS V14.01,2013-08-02 03:25:00,
2013-08-01 22:27:00,82.4,77.4,29.87,SE,134,4.0,8.2,85,0.00,,---,0.00,0.00,VWS V14.01,2013-08-02 03:27:00,
2013-08-01 22:30:00,82.4,77.4,29.89,SE,138,5.0,11.2,85,0.00,,---,0.00,0.00,VWS V14.01,2013-08-02 03:30:00,
2013-08-01 22:32:00,82.4,77.4,29.89,SE,144,3.0,8.2,85,0.00,,---,0.00,0.00,VWS V14.01,2013-08-02 03:32:00,
2013-08-01 22:35:00,82.4,77.8,29.89,SE,128,6.0,11.2,86,0.00,,---,0.00,0.00,VWS V14.01,2013-08-02 03:35:00,
2013-08-01 22:37:00,82.4,77.8,29.89,SSE,151,5.0,7.2,86,0.00,,---,0.00,0.00,VWS V14.01,2013-08-02 03:37:00,
2013-08-01 22:40:00,82.6,78.0,29.89,South,172,2.0,13.2,86,0.00,,---,0.00,0.00,VWS V14.01,2013-08-02 03:40:00,
2013-08-01 22:42:00,82.6,78.0,29.89,SSE,159,6.0,8.2,86,0.00,,---,0.00,0.00,VWS V14.01,2013-08-02 03:42:00,
2013-08-01 22:45:00,82.4,77.4,29.89,SE,142,4.0,9.2,85,0.00,,---,0.00,0.00,VWS V14.01,2013-08-02 03:45:00,
2013-08-01 22:47:00,82.4,77.8,29.89,SE,146,2.0,6.2,86,0.00,,---,0.00,0.00,VWS V14.01,2013-08-02 03:47:00,
2013-08-01 22:50:00,82.4,77.8,29.89,SE,142,5.0,12.2,86,0.00,,---,0.00,0.00,VWS V14.01,2013-08-02 03:50:00,
2013-08-01 22:52:00,82.4,77.8,29.89,SSE,162,7.0,11.2,86,0.00,,---,0.00,0.00,VWS V14.01,2013-08-02 03:52:00,
2013-08-01 22:55:00,82.4,77.8,29.89,SE,139,3.0,11.2,86,0.00,,---,0.00,0.00,VWS V14.01,2013-08-02 03:55:00,
2013-08-01 22:57:00,82.4,77.8,29.89,SE,130,4.0,10.2,86,0.00,,---,0.00,0.00,VWS V14.01,2013-08-02 03:57:00,
2013-08-01 23:00:00,82.4,77.4,29.89,SSE,147,8.0,13.2,85,0.00,,---,0.00,0.00,VWS V14.01,2013-08-02 04:00:00,
2013-08-01 23:01:00,82.4,77.4,29.89,SE,138,5.0,13.2,85,0.00,,---,0.00,0.00,VWS V14.01,2013-08-02 04:01:00,
2013-08-01 23:05:00,82.4,77.4,29.89,SSE,156,3.0,11.2,85,0.00,,---,0.00,0.00,VWS V14.01,2013-08-02 04:05:00,
2013-08-01 23:07:00,82.4,77.4,29.89,SSE,156,5.0,6.2,85,0.00,,---,0.00,0.00,VWS V14.01,2013-08-02 04:07:00,
2013-08-01 23:10:00,82.4,77.8,29.89,SE,128,2.0,12.2,86,0.00,,---,0.00,0.00,VWS V14.01,2013-08-02 04:10:00,
2013-08-01 23:12:00,82.4,77.4,29.89,SE,128,3.0,6.2,85,0.00,,---,0.00,0.00,VWS V14.01,2013-08-02 04:12:00,
2013-08-01 23:15:00,82.6,77.6,29.89,SE,140,1.0,12.2,85,0.00,,---,0.00,0.00,VWS V14.01,2013-08-02 04:15:00,
2013-08-01 23:16:00,82.6,77.6,29.89,SE,140,2.0,12.2,85,0.00,,---,0.00,0.00,VWS V14.01,2013-08-02 04:16:00,
2013-08-01 23:20:00,82.4,77.4,29.89,SSE,163,5.0,14.2,85,0.00,,---,0.00,0.00,VWS V14.01,2013-08-02 04:20:00,
2013-08-01 23:21:00,82.4,77.4,29.89,SSE,156,9.0,14.2,85,0.00,,---,0.00,0.00,VWS V14.01,2013-08-02 04:21:00,
2013-08-01 23:25:00,82.2,77.6,29.89,SSE,147,5.0,11.2,86,0.00,,---,0.00,0.00,VWS V14.01,2013-08-02 04:25:00,
2013-08-01 23:26:00,82.2,77.6,29.89,East,98,2.0,11.2,86,0.00,,---,0.00,0.00,VWS V14.01,2013-08-02 04:26:00,
2013-08-01 23:30:00,82.2,77.6,29.90,SSE,165,9.0,12.2,86,0.00,,---,0.00,0.00,VWS V14.01,2013-08-02 04:30:00,
2013-08-01 23:31:00,82.2,77.6,29.90,SSE,153,2.0,12.2,86,0.00,,---,0.00,0.00,VWS V14.01,2013-08-02 04:31:00,
2013-08-01 23:35:00,82.0,77.8,29.90,SE,136,8.0,12.2,87,0.00,,---,0.00,0.00,VWS V14.01,2013-08-02 04:35:00,
2013-08-01 23:36:00,82.0,77.8,29.90,SSE,155,3.0,12.2,87,0.00,,---,0.00,0.00,VWS V14.01,2013-08-02 04:36:00,
2013-08-01 23:40:00,82.0,77.8,29.90,SSE,153,5.0,11.2,87,0.00,,---,0.00,0.00,VWS V14.01,2013-08-02 04:40:00,
2013-08-01 23:41:00,82.0,77.8,29.90,SSE,153,3.0,11.2,87,0.00,,---,0.00,0.00,VWS V14.01,2013-08-02 04:41:00,
2013-08-01 23:45:00,82.0,77.8,29.90,SE,140,7.0,11.2,87,0.00,,---,0.00,0.00,VWS V14.01,2013-08-02 04:45:00,
2013-08-01 23:46:00,82.0,77.8,29.90,SSE,155,4.0,11.2,87,0.00,,---,0.00,0.00,VWS V14.01,2013-08-02 04:46:00,
2013-08-01 23:50:00,82.2,77.9,29.90,SE,146,6.0,11.2,87,0.00,,---,0.00,0.00,VWS V14.01,2013-08-02 04:50:00,
2013-08-01 23:51:00,82.2,77.9,29.90,SE,146,3.0,11.2,87,0.00,,---,0.00,0.00,VWS V14.01,2013-08-02 04:51:00,
2013-08-01 23:55:00,82.4,77.8,29.90,SE,140,7.0,13.2,86,0.00,,---,0.00,0.00,VWS V14.01,2013-08-02 04:55:00,
2013-08-01 23:56:00,82.4,77.8,29.90,SSE,157,10.0,11.2,86,0.00,,---,0.00,0.00,VWS V14.01,2013-08-02 04:56:00,